Parrish, Illinois
Current Conditions -  °F | °C
As of 6:35 PM on Sunday 25 Jan 2015 (Local Time) from KHSB Reporting Station
Haze Haze  
Wind Chill: 37°   Ceiling: 800
Heat Index: 43°   Visibility: 5mi
Dew Point: 43°   Wind: 10mph
Humidity: 100%   Direction: 340°NNW
Pressure: 29.72"   Gusts: NA
Location:  37.8635°N, 88.7619°W
Report Text: KHSB 260035Z AUTO 34009KT 5SM BR BKN008 OVC015 06/06 A2972 RMK AO2 T00590059
Loading
Personal Weather Stations






























Interactive Weather Map New forecast layout! Learn more

10-Day Weather Forecast

Advertisements
Track Severe Weather on mobile